LEAMLEGR

Guest
Details From LEAM - Almeria
To LEGR - Granada
Flight Number -
Tags Generated
Created
Modified
Stats Distance 71 nm / 131 km
Max Altitude 0 ft / 0 m
Waypoints 2
Social Downloads 2
Likes 0
Share VATSIM

Download

Looking for another format? Having issues loading an existing format? Contact us
Advertisement - Login to hide

Notes

Generated

Route

LEAM LEGR

ID Type Via Altitude Latitude Longitude Leg Dist Tot Dist Heading (true) Name
O LEAM APT - 0 ft / 0 m 36.83972˚ -2.38726˚ - 0 nm - -
O LEGR APT - 0 ft / 0 m 37.18861˚ -3.79372˚ 70 nm 70 nm 288° / 287° -

Altitude Profile

Advertisement - Login to hide

LEAM

Details ICAO LEAM (LEI)
Name Almeria
Region Spain
Timezone Unknown (UTC+0.0)
Stats Elevation 70 ft / 21 m (AMSL)
Location 36.843935° -2.370097°
Runways 1
Magnetic Variation 0.288° W

METAR

LEAM 121630Z 24003KT 9999 FEW025TCU 14/06 Q1018

Decode

TAF

TAF LEAM 121400Z 1215/1315 14005KT CAVOK TX16/1215Z TN09/1304Z= TAF LEAS 121400Z 1215/1315 23008KT 9999 SCT060 TX14/1314Z TN06/1301Z TEMPO 1300/1315 23015G28KT

Decode

Departure Runways

ID Width Length Bearing (true) Bearing (mag) Surface Threshold Offset Overrun Length
08 148 ft / 45 m 10,484 ft / 3,196 m 72.94° 73.23° Asphalt 492 ft / 150 m 191 ft / 58 m
26 148 ft / 45 m 10,484 ft / 3,196 m 252.96° 253.25° Asphalt 0 ft / 0 m 150 ft / 46 m

LEGR

Details ICAO LEGR (GRX)
Name Granada
Region Spain
Timezone Europe/Madrid (UTC+1.0)
Stats Elevation 1,859 ft / 567 m (AMSL)
Location 37.188731° -3.777359°
Runways 1
Magnetic Variation 0.677° W

METAR

LEGR 121630Z 07006KT 030V090 CAVOK 10/M04 Q1018

Decode

TAF

TAF LEGR 121400Z 1215/1315 02008KT CAVOK TX12/1315Z TN00/1308Z

Decode

Destination Runways

ID Width Length Bearing (true) Bearing (mag) Surface Threshold Offset Overrun Length
09 147 ft / 45 m 9,511 ft / 2,899 m 89.46° 90.14° Asphalt 0 ft / 0 m 0 ft / 0 m
27 147 ft / 45 m 9,511 ft / 2,899 m 269.48° 270.16° Asphalt 0 ft / 0 m 0 ft / 0 m

Approach Navaids

Runway Type Ident Frequency Range Bearing (true) Bearing (mag) Slope Elevation
09 Localiser GRD 109.30 MHz 18 nm / 33 km 89.49° 90.16° - 1,859 ft / 567 m (AMSL)
09 Glidescope GRD 109.30 MHz 10 nm / 19 km 89.47° 90.15° 3.00° 1,859 ft / 567 m (AMSL)

Popular Alternatives